Archival Weather

Chicago O'Hare International

Chicago, Illinois (KORD)

Report from: Friday, December 2, 2022 9:51 AM CST
Current time: Friday, June 21, 2024 2:22 AM CDT

Current weather – Weather history – Daily summaries
Weather forecast

Temperature5.6°C (42.1°F)
Wind chill1.0°C (33.9°F)
Dew point-3.9°C (25.0°F)
Winds 15 kts (7.7 m/s, 17.3 mph) South (190°)
Wind gusts 22 kts (11.3 m/s, 25.3 mph)
Visibility10 mi. (16.1 km)
Clouds Ceiling: Overcast 3,900 ft. (1,189 m)
Altimeter29.92 in.Hg (1013 mB)
Relative humidity50 %
Density altitude-1,077 ft. (-328 m)
Sea-level pressure101.4 kPa (1014 mB, 29.93 in.Hg)
Remarks Automated weather observing station with precipitation discriminator
Flight conditions Visual Meteorological Conditions
Raw dataKORD 021551Z 19015G22KT 10SM OVC039 06/M04 A2992 RMK AO2 SLP137 T00561039
An error has occurred. This application may no longer respond until reloaded. Reload 🗙